Sand Creek, Wisconsin
Current Conditions -  °F | °C
As of 7:15 AM on Saturday 01 Nov 2014 (Local Time) from KY23 Reporting Station
Clear Clear  
Wind Chill: 17°   Ceiling: Unl
Heat Index: 17°   Visibility: 10mi
Dew Point: 15°   Wind: 0mph
Humidity: 94%   Direction: NA
Pressure: 30.47"   Gusts: NA
Location:  45.17°N, 91.69°W
Report Text: KY23 011215Z AUTO 00000KT 10SM CLR M08/M09 A3047 RMK AO2 T10851093
Loading
Personal Weather Stations






























Interactive Weather Map
Tropical Storm Tracking
New forecast layout! Learn more

10-Day Weather Forecast

Advertisements
Track Severe Weather on mobile